Time;durP1;ratioP1;P1;durP2;ratioP2;P2;SDS_P1;SDS_P2;PMS_P1;PMS_P2;Temp;Humidity;BMP_temperature;BMP_pressure;BME280_temperature;BME280_humidity;BME280_pressure;Samples;Min_cycle;Max_cycle;Signal;HPM_P1;HPM_P2
2022/03/27 00:09:06;;;;;;;;;0.00;0.00;;;;;;;;2;288085424;288085424;-74
2022/03/27 00:17:22;;;;;;;;;0.00;0.00;;;;;;;;2;261076671;261076671;-74
2022/03/27 00:26:50;;;;;;;;;0.00;0.00;;;;;;;;2;288085967;288085967;-73
2022/03/27 00:35:06;;;;;;;;;0.00;0.00;;;;;;;;2;261073958;261073958;-74
2022/03/27 00:47:53;;;;;;;;;0.00;0.00;;;;;;;;2;288082884;288082884;-72
2022/03/27 00:56:08;;;;;;;;;0.00;0.00;;;;;;;;2;261078661;261078661;-73
2022/03/27 01:05:37;;;;;;;;;0.00;0.00;;;;;;;;2;288084284;288084284;-72
2022/03/27 01:13:53;;;;;;;;;0.00;0.00;;;;;;;;2;261074789;261074789;-73
2022/03/27 01:23:21;;;;;;;;;0.00;0.00;;;;;;;;2;288085626;288085626;-72
2022/03/27 01:31:37;;;;;;;;;0.00;0.00;;;;;;;;2;261077425;261077425;-73
2022/03/27 01:41:05;;;;;;;;;0.00;0.00;;;;;;;;2;288084716;288084716;-72
2022/03/27 01:49:20;;;;;;;;;0.00;0.00;;;;;;;;2;261078076;261078076;-73
2022/03/27 01:58:48;;;;;;;;;0.00;0.00;;;;;;;;2;288082700;288082700;-73
2022/03/27 02:07:05;;;;;;;;;0.00;0.00;;;;;;;;2;261075678;261075678;-72
2022/03/27 02:16:32;;;;;;;;;0.00;0.00;;;;;;;;2;288088720;288088720;-72
2022/03/27 02:24:48;;;;;;;;;0.00;0.00;;;;;;;;2;261072557;261072557;-72
2022/03/27 02:34:15;;;;;;;;;0.00;0.00;;;;;;;;2;288085218;288085218;-72
2022/03/27 02:42:31;;;;;;;;;0.00;0.00;;;;;;;;2;261077054;261077054;-72
2022/03/27 02:51:59;;;;;;;;;0.00;0.00;;;;;;;;2;288082626;288082626;-72
2022/03/27 03:00:14;;;;;;;;;0.00;0.00;;;;;;;;2;261076873;261076873;-72
2022/03/27 03:09:42;;;;;;;;;0.00;0.00;;;;;;;;2;288083775;288083775;-72
2022/03/27 03:17:57;;;;;;;;;0.00;0.00;;;;;;;;2;261077787;261077787;-72
2022/03/27 03:27:25;;;;;;;;;0.00;0.00;;;;;;;;2;288081847;288081847;-72
2022/03/27 03:35:41;;;;;;;;;0.00;0.00;;;;;;;;2;261076163;261076163;-72
2022/03/27 03:45:08;;;;;;;;;0.00;0.00;;;;;;;;2;288085793;288085793;-72
2022/03/27 03:53:25;;;;;;;;;0.00;0.00;;;;;;;;2;261075904;261075904;-72
2022/03/27 04:02:53;;;;;;;;;0.00;0.00;;;;;;;;2;288084595;288084595;-72
2022/03/27 04:11:14;;;;;;;;;0.00;0.00;;;;;;;;2;261076068;261076068;-72
2022/03/27 04:20:43;;;;;;;;;0.00;0.00;;;;;;;;2;288082725;288082725;-72
2022/03/27 04:28:59;;;;;;;;;0.00;0.00;;;;;;;;2;261077594;261077594;-72
2022/03/27 04:38:27;;;;;;;;;0.00;0.00;;;;;;;;2;288085134;288085134;-72
2022/03/27 04:46:42;;;;;;;;;0.00;0.00;;;;;;;;2;261076785;261076785;-72
2022/03/27 04:56:10;;;;;;;;;0.00;0.00;;;;;;;;2;288087845;288087845;-72
2022/03/27 05:04:25;;;;;;;;;0.00;0.00;;;;;;;;2;261076112;261076112;-72
2022/03/27 05:13:53;;;;;;;;;0.00;0.00;;;;;;;;2;288082263;288082263;-72
2022/03/27 05:22:09;;;;;;;;;0.00;0.00;;;;;;;;2;261075540;261075540;-73
2022/03/27 05:31:36;;;;;;;;;0.00;0.00;;;;;;;;2;288084042;288084042;-72
2022/03/27 05:39:51;;;;;;;;;0.00;0.00;;;;;;;;2;261078271;261078271;-72
2022/03/27 05:49:19;;;;;;;;;0.00;0.00;;;;;;;;2;288084102;288084102;-72
2022/03/27 05:57:34;;;;;;;;;0.00;0.00;;;;;;;;2;261075276;261075276;-72
2022/03/27 06:07:02;;;;;;;;;0.00;0.00;;;;;;;;2;288085941;288085941;-72
2022/03/27 06:15:18;;;;;;;;;0.00;0.00;;;;;;;;2;261075914;261075914;-72
2022/03/27 06:24:46;;;;;;;;;0.00;0.00;;;;;;;;2;288084682;288084682;-72
2022/03/27 06:33:02;;;;;;;;;0.00;0.00;;;;;;;;2;261077474;261077474;-72
2022/03/27 06:42:30;;;;;;;;;0.00;0.00;;;;;;;;2;288085655;288085655;-72
2022/03/27 06:50:46;;;;;;;;;0.00;0.00;;;;;;;;2;261077395;261077395;-72
2022/03/27 07:08:48;;;;;;;;;0.00;0.00;;;;;;;;2;261074102;261074102;-74
2022/03/27 07:18:17;;;;;;;;;0.00;0.00;;;;;;;;2;288082407;288082407;-73
2022/03/27 07:26:33;;;;;;;;;0.00;0.00;;;;;;;;2;261076792;261076792;-74
2022/03/27 07:36:01;;;;;;;;;0.00;0.00;;;;;;;;2;288085013;288085013;-73
2022/03/27 07:44:16;;;;;;;;;0.00;0.00;;;;;;;;2;261078212;261078212;-73
2022/03/27 07:53:44;;;;;;;;;0.00;0.00;;;;;;;;2;288085372;288085372;-74
2022/03/27 08:02:00;;;;;;;;;0.00;0.00;;;;;;;;2;261073832;261073832;-73
2022/03/27 08:11:28;;;;;;;;;0.00;0.00;;;;;;;;2;288085331;288085331;-74
2022/03/27 08:19:44;;;;;;;;;0.00;0.00;;;;;;;;2;261075211;261075211;-74
2022/03/27 08:29:11;;;;;;;;;0.00;0.00;;;;;;;;2;288086023;288086023;-73
2022/03/27 08:37:27;;;;;;;;;0.00;0.00;;;;;;;;2;261077593;261077593;-74
2022/03/27 08:46:55;;;;;;;;;0.00;0.00;;;;;;;;2;288082648;288082648;-74
2022/03/27 08:55:23;;;;;;;;;0.00;0.00;;;;;;;;2;261076096;261076096;-76
2022/03/27 09:04:55;;;;;;;;;0.00;0.00;;;;;;;;2;288084839;288084839;-75
2022/03/27 09:13:16;;;;;;;;;0.00;0.00;;;;;;;;2;261078113;261078113;-76
2022/03/27 09:22:46;;;;;;;;;0.00;0.00;;;;;;;;2;288084242;288084242;-76
2022/03/27 09:31:14;;;;;;;;;0.00;0.00;;;;;;;;2;261079987;261079987;-76
2022/03/27 09:40:42;;;;;;;;;0.00;0.00;;;;;;;;2;288086062;288086062;-76
2022/03/27 09:48:57;;;;;;;;;0.00;0.00;;;;;;;;2;261080258;261080258;-76
2022/03/27 09:58:35;;;;;;;;;0.00;0.00;;;;;;;;2;288085260;288085260;-75
2022/03/27 10:06:51;;;;;;;;;0.00;0.00;;;;;;;;2;261076103;261076103;-74
2022/03/27 10:16:23;;;;;;;;;0.00;0.00;;;;;;;;2;288086550;288086550;-74
2022/03/27 10:24:40;;;;;;;;;0.00;0.00;;;;;;;;2;261076521;261076521;-74
2022/03/27 10:34:10;;;;;;;;;0.00;0.00;;;;;;;;2;288085959;288085959;-75
2022/03/27 10:42:25;;;;;;;;;0.00;0.00;;;;;;;;2;261074610;261074610;-75
2022/03/27 10:52:02;;;;;;;;;0.00;0.00;;;;;;;;2;288085359;288085359;-76
2022/03/27 11:00:38;;;;;;;;;0.00;0.00;;;;;;;;2;261079600;261079600;-75
2022/03/27 11:10:25;;;;;;;;;0.00;0.00;;;;;;;;2;288083576;288083576;-76
2022/03/27 11:18:43;;;;;;;;;0.00;0.00;;;;;;;;2;261079246;261079246;-74
2022/03/27 11:28:16;;;;;;;;;0.00;0.00;;;;;;;;2;288086533;288086533;-75
2022/03/27 11:36:32;;;;;;;;;0.00;0.00;;;;;;;;2;261077833;261077833;-75
2022/03/27 11:46:01;;;;;;;;;0.00;0.00;;;;;;;;2;288086467;288086467;-75
2022/03/27 11:54:21;;;;;;;;;0.00;0.00;;;;;;;;2;261079038;261079038;-74
2022/03/27 12:03:56;;;;;;;;;0.00;0.00;;;;;;;;2;288084345;288084345;-75
2022/03/27 12:12:12;;;;;;;;;0.00;0.00;;;;;;;;2;261073972;261073972;-74
2022/03/27 12:21:44;;;;;;;;;0.00;0.00;;;;;;;;2;288084998;288084998;-76
2022/03/27 12:30:00;;;;;;;;;0.00;0.00;;;;;;;;2;261078045;261078045;-75
2022/03/27 12:39:28;;;;;;;;;0.00;0.00;;;;;;;;2;288086753;288086753;-75
2022/03/27 12:47:47;;;;;;;;;0.00;0.00;;;;;;;;2;261078616;261078616;-75
2022/03/27 12:57:15;;;;;;;;;0.00;0.00;;;;;;;;2;288087219;288087219;-76
2022/03/27 13:05:30;;;;;;;;;0.00;0.00;;;;;;;;2;261077604;261077604;-76
2022/03/27 13:15:00;;;;;;;;;0.00;0.00;;;;;;;;2;288084323;288084323;-75
2022/03/27 13:23:16;;;;;;;;;0.00;0.00;;;;;;;;2;261077022;261077022;-76
2022/03/27 13:32:44;;;;;;;;;0.00;0.00;;;;;;;;2;288084952;288084952;-76
2022/03/27 13:50:46;;;;;;;;;0.00;0.00;;;;;;;;2;288081855;288081855;-75
2022/03/27 13:59:01;;;;;;;;;0.00;0.00;;;;;;;;2;261076100;261076100;-74
2022/03/27 14:08:29;;;;;;;;;0.00;0.00;;;;;;;;2;288085675;288085675;-75
2022/03/27 14:16:45;;;;;;;;;0.00;0.00;;;;;;;;2;261076606;261076606;-75
2022/03/27 14:26:13;;;;;;;;;0.00;0.00;;;;;;;;2;288080969;288080969;-75
2022/03/27 14:34:29;;;;;;;;;0.00;0.00;;;;;;;;2;261076425;261076425;-75
2022/03/27 14:43:56;;;;;;;;;0.00;0.00;;;;;;;;2;288081918;288081918;-75
2022/03/27 14:52:12;;;;;;;;;0.00;0.00;;;;;;;;2;261075797;261075797;-75
2022/03/27 15:01:40;;;;;;;;;0.00;0.00;;;;;;;;2;288083399;288083399;-75
2022/03/27 15:09:56;;;;;;;;;0.00;0.00;;;;;;;;2;261076767;261076767;-76
2022/03/27 15:19:23;;;;;;;;;0.00;0.00;;;;;;;;2;288083390;288083390;-75
2022/03/27 15:27:39;;;;;;;;;0.00;0.00;;;;;;;;2;261081065;261081065;-75
2022/03/27 15:37:06;;;;;;;;;0.00;0.00;;;;;;;;2;288085955;288085955;-75
2022/03/27 15:45:22;;;;;;;;;0.00;0.00;;;;;;;;2;261075351;261075351;-75
2022/03/27 15:54:49;;;;;;;;;0.00;0.00;;;;;;;;2;288086413;288086413;-71
2022/03/27 16:03:05;;;;;;;;;0.00;0.00;;;;;;;;2;261076652;261076652;-71
2022/03/27 16:12:32;;;;;;;;;0.00;0.00;;;;;;;;2;288085747;288085747;-72
2022/03/27 16:20:48;;;;;;;;;0.00;0.00;;;;;;;;2;261074112;261074112;-72
2022/03/27 16:30:15;;;;;;;;;0.00;0.00;;;;;;;;2;288082803;288082803;-74
2022/03/27 16:38:31;;;;;;;;;0.00;0.00;;;;;;;;2;261078558;261078558;-77
2022/03/27 16:56:52;;;;;;;;;0.00;0.00;;;;;;;;2;261076278;261076278;-74
2022/03/27 17:06:20;;;;;;;;;0.00;0.00;;;;;;;;2;288086537;288086537;-75
2022/03/27 17:14:36;;;;;;;;;0.00;0.00;;;;;;;;2;261077453;261077453;-75
2022/03/27 17:24:03;;;;;;;;;0.00;0.00;;;;;;;;2;288084652;288084652;-75
2022/03/27 17:32:19;;;;;;;;;0.00;0.00;;;;;;;;2;261076824;261076824;-75
2022/03/27 17:41:46;;;;;;;;;0.00;0.00;;;;;;;;2;288086303;288086303;-76
2022/03/27 17:50:03;;;;;;;;;0.00;0.00;;;;;;;;2;261076942;261076942;-75
2022/03/27 17:59:31;;;;;;;;;0.00;0.00;;;;;;;;2;288086254;288086254;-75
2022/03/27 18:07:46;;;;;;;;;0.00;0.00;;;;;;;;2;261074796;261074796;-75
2022/03/27 18:17:16;;;;;;;;;0.00;0.00;;;;;;;;2;288087299;288087299;-75
2022/03/27 18:25:31;;;;;;;;;0.00;0.00;;;;;;;;2;261077368;261077368;-75
2022/03/27 18:34:59;;;;;;;;;0.00;0.00;;;;;;;;2;288083605;288083605;-76
2022/03/27 18:43:14;;;;;;;;;0.00;0.00;;;;;;;;2;261077803;261077803;-76
2022/03/27 18:52:42;;;;;;;;;0.00;0.00;;;;;;;;2;288083696;288083696;-76
2022/03/27 19:00:57;;;;;;;;;0.00;0.00;;;;;;;;2;261078272;261078272;-76
2022/03/27 19:10:25;;;;;;;;;0.00;0.00;;;;;;;;2;288080706;288080706;-76
2022/03/27 19:18:44;;;;;;;;;0.00;0.00;;;;;;;;2;261076523;261076523;-75
2022/03/27 19:28:13;;;;;;;;;0.00;0.00;;;;;;;;2;288088016;288088016;-76
2022/03/27 19:36:29;;;;;;;;;0.00;0.00;;;;;;;;2;261077096;261077096;-76
2022/03/27 19:45:57;;;;;;;;;0.00;0.00;;;;;;;;2;288083520;288083520;-77
2022/03/27 19:54:12;;;;;;;;;0.00;0.00;;;;;;;;2;261080003;261080003;-76
2022/03/27 20:03:40;;;;;;;;;0.00;0.00;;;;;;;;2;288086538;288086538;-76
2022/03/27 20:11:55;;;;;;;;;0.00;0.00;;;;;;;;2;261078547;261078547;-76
2022/03/27 20:21:23;;;;;;;;;0.00;0.00;;;;;;;;2;288084479;288084479;-76
2022/03/27 20:29:39;;;;;;;;;0.00;0.00;;;;;;;;2;261076524;261076524;-76
2022/03/27 20:39:06;;;;;;;;;0.00;0.00;;;;;;;;2;288083762;288083762;-71
2022/03/27 20:47:22;;;;;;;;;0.00;0.00;;;;;;;;2;261079702;261079702;-71
2022/03/27 20:56:50;;;;;;;;;0.00;0.00;;;;;;;;2;288084281;288084281;-71
2022/03/27 21:05:05;;;;;;;;;0.00;0.00;;;;;;;;2;261078245;261078245;-71
2022/03/27 21:14:33;;;;;;;;;0.00;0.00;;;;;;;;2;288083917;288083917;-70
2022/03/27 21:22:48;;;;;;;;;0.00;0.00;;;;;;;;2;261077701;261077701;-70
2022/03/27 21:32:16;;;;;;;;;0.00;0.00;;;;;;;;2;288086429;288086429;-71
2022/03/27 21:40:32;;;;;;;;;0.00;0.00;;;;;;;;2;261077270;261077270;-70
2022/03/27 21:50:00;;;;;;;;;0.00;0.00;;;;;;;;2;288084812;288084812;-70
2022/03/27 21:58:16;;;;;;;;;0.00;0.00;;;;;;;;2;261081331;261081331;-70
2022/03/27 22:07:43;;;;;;;;;0.00;0.00;;;;;;;;2;288084336;288084336;-70
2022/03/27 22:15:59;;;;;;;;;0.00;0.00;;;;;;;;2;261075126;261075126;-71
2022/03/27 22:25:26;;;;;;;;;0.00;0.00;;;;;;;;2;288084252;288084252;-75
2022/03/27 22:33:43;;;;;;;;;0.00;0.00;;;;;;;;2;261075942;261075942;-76
2022/03/27 22:43:11;;;;;;;;;0.00;0.00;;;;;;;;2;288083985;288083985;-75
2022/03/27 22:51:26;;;;;;;;;0.00;0.00;;;;;;;;2;261077404;261077404;-75
2022/03/27 23:00:54;;;;;;;;;0.00;0.00;;;;;;;;2;288083544;288083544;-75
2022/03/27 23:09:10;;;;;;;;;0.00;0.00;;;;;;;;2;261077992;261077992;-75
2022/03/27 23:18:37;;;;;;;;;0.00;0.00;;;;;;;;2;288084803;288084803;-75
2022/03/27 23:26:53;;;;;;;;;0.00;0.00;;;;;;;;2;261074519;261074519;-74
2022/03/27 23:36:20;;;;;;;;;0.00;0.00;;;;;;;;2;288082740;288082740;-74
2022/03/27 23:44:36;;;;;;;;;0.00;0.00;;;;;;;;2;261076292;261076292;-75
2022/03/27 23:54:04;;;;;;;;;0.00;0.00;;;;;;;;2;288082597;288082597;-74
